Time;durP1;ratioP1;P1;durP2;ratioP2;P2;SDS_P1;SDS_P2;PMS_P1;PMS_P2;Temp;Humidity;BMP_temperature;BMP_pressure;BME280_temperature;BME280_humidity;BME280_pressure;Samples;Min_cycle;Max_cycle;Signal;HPM_P1;HPM_P2
2023/12/02 00:00:07;;;;;;;20.05;9.40;;;;;;;0.04;74.34;100990.31;5065957;28;20093;-72
2023/12/02 00:02:32;;;;;;;24.25;10.77;;;;;;;-0.01;74.60;100976.44;5057611;28;20024;-72
2023/12/02 00:04:57;;;;;;;21.00;10.85;;;;;;;0.05;75.12;100980.78;5062816;28;20032;-72
2023/12/02 00:07:23;;;;;;;18.98;9.50;;;;;;;0.04;73.95;100979.06;5055738;28;20025;-72
2023/12/02 00:09:48;;;;;;;21.27;10.65;;;;;;;0.02;73.91;100971.28;5058986;28;20111;-72
2023/12/02 00:12:13;;;;;;;19.13;9.02;;;;;;;0.03;74.17;100966.94;5054826;28;20056;-72
2023/12/02 00:14:39;;;;;;;26.48;11.38;;;;;;;0.02;74.18;100978.19;5058399;28;20025;-72
2023/12/02 00:17:04;;;;;;;20.30;9.90;;;;;;;-0.04;74.60;100979.03;5053425;28;20441;-72
2023/12/02 00:19:29;;;;;;;20.77;10.15;;;;;;;-0.02;74.92;100980.78;5061739;28;20665;-72
2023/12/02 00:21:55;;;;;;;21.80;10.60;;;;;;;-0.05;73.74;100985.06;5058596;28;20464;-72
2023/12/02 00:24:20;;;;;;;22.52;10.10;;;;;;;-0.08;73.65;100985.94;5059892;28;20138;-72
2023/12/02 00:26:45;;;;;;;22.35;10.40;;;;;;;-0.08;73.14;100978.16;5056955;28;20170;-72
2023/12/02 00:29:11;;;;;;;23.77;10.70;;;;;;;-0.12;73.40;100978.13;5060851;28;20028;-72
2023/12/02 00:31:36;;;;;;;21.95;10.40;;;;;;;-0.13;74.28;100976.41;5052023;28;20033;-72
2023/12/02 00:34:02;;;;;;;24.92;9.88;;;;;;;-0.10;73.09;100974.66;5059863;28;20021;-72
2023/12/02 00:36:27;;;;;;;23.50;10.77;;;;;;;-0.07;74.06;100979.03;5065211;28;20379;-72
2023/12/02 00:38:52;;;;;;;23.15;9.98;;;;;;;-0.05;73.59;100985.06;5059209;28;20021;-72
2023/12/02 00:41:19;;;;;;;20.60;10.45;;;;;;;-0.07;73.30;100981.63;5064157;28;20026;-72
2023/12/02 00:43:44;;;;;;;19.98;9.73;;;;;;;-0.08;73.99;100982.47;5067310;28;20538;-72
2023/12/02 00:46:10;;;;;;;20.58;10.40;;;;;;;-0.09;74.06;100983.34;5061626;28;20033;-72
2023/12/02 00:48:35;;;;;;;18.73;9.60;;;;;;;-0.10;73.68;100985.06;5065305;28;20021;-72
2023/12/02 00:51:00;;;;;;;22.77;10.25;;;;;;;-0.08;73.41;100987.69;5061453;28;20495;-72
2023/12/02 00:53:25;;;;;;;20.52;10.45;;;;;;;-0.09;72.89;100981.63;5065678;28;20044;-72
2023/12/02 00:55:51;;;;;;;22.33;9.95;;;;;;;-0.12;73.20;100981.59;5070820;28;20044;-72
2023/12/02 00:58:16;;;;;;;22.00;9.88;;;;;;;-0.12;72.92;100984.19;5064460;28;20388;-72
2023/12/02 01:00:42;;;;;;;20.50;10.45;;;;;;;-0.08;73.24;100987.69;5063418;28;20037;-72
2023/12/02 01:03:07;;;;;;;20.40;10.00;;;;;;;-0.07;72.73;100977.28;5062034;28;20032;-72
2023/12/02 01:05:32;;;;;;;24.35;11.07;;;;;;;-0.07;72.47;100987.69;5061941;28;20379;-72
2023/12/02 01:07:58;;;;;;;24.38;10.82;;;;;;;-0.04;73.32;100982.50;5062280;28;20054;-72
2023/12/02 01:10:23;;;;;;;20.85;10.13;;;;;;;-0.02;73.20;100979.91;5069836;28;20020;-72
2023/12/02 01:12:48;;;;;;;23.40;10.60;;;;;;;-0.04;73.28;100974.72;5062335;28;20664;-72
2023/12/02 01:15:14;;;;;;;23.02;11.00;;;;;;;-0.03;73.16;100973.84;5059734;28;20021;-72
2023/12/02 01:17:39;;;;;;;23.85;10.32;;;;;;;0.00;73.38;100967.81;5063748;28;20026;-72
2023/12/02 01:20:05;;;;;;;24.73;10.75;;;;;;;0.06;73.37;100970.44;5058955;28;20036;-72
2023/12/02 01:22:30;;;;;;;19.50;8.93;;;;;;;0.09;73.31;100973.03;5058477;28;20124;-72
2023/12/02 01:24:56;;;;;;;19.25;9.98;;;;;;;0.15;73.68;100970.47;5061764;28;20016;-72
2023/12/02 01:27:21;;;;;;;24.67;11.15;;;;;;;0.17;72.54;100970.47;5063676;28;20063;-72
2023/12/02 01:29:46;;;;;;;24.13;11.45;;;;;;;0.11;72.49;100975.66;5059704;28;20025;-72
2023/12/02 01:32:12;;;;;;;22.48;10.35;;;;;;;0.08;72.74;100973.03;5054123;28;20036;-72
2023/12/02 01:34:37;;;;;;;24.67;10.70;;;;;;;0.06;72.56;100969.56;5062245;28;20090;-72
2023/12/02 01:37:02;;;;;;;24.48;10.88;;;;;;;0.04;73.09;100981.66;5062338;28;20033;-72
2023/12/02 01:39:28;;;;;;;24.95;11.13;;;;;;;0.03;73.48;100980.78;5062653;28;20032;-72
2023/12/02 01:41:53;;;;;;;23.80;10.43;;;;;;;0.05;73.81;100984.28;5057233;28;20567;-72
2023/12/02 01:44:18;;;;;;;21.80;9.48;;;;;;;0.08;73.67;100992.09;5064287;28;20493;-72
2023/12/02 01:46:44;;;;;;;22.92;11.18;;;;;;;0.06;73.21;100991.22;5055438;28;20044;-72
2023/12/02 01:49:10;;;;;;;21.55;11.48;;;;;;;0.06;73.57;100999.03;5066207;28;20020;-72
2023/12/02 01:51:36;;;;;;;21.55;10.02;;;;;;;0.07;73.41;101000.75;5067255;28;20041;-72
2023/12/02 01:54:01;;;;;;;22.52;10.38;;;;;;;0.11;72.58;101001.66;5067376;28;20064;-72
2023/12/02 01:56:26;;;;;;;21.75;9.30;;;;;;;0.13;72.80;101007.69;5061374;28;20037;-72
2023/12/02 01:58:52;;;;;;;23.48;10.30;;;;;;;0.12;73.93;100998.19;5061926;28;20025;-72
2023/12/02 02:01:17;;;;;;;25.73;11.23;;;;;;;0.12;73.02;101000.78;5065881;28;20052;-72
2023/12/02 02:03:43;;;;;;;21.80;11.35;;;;;;;0.01;73.43;100992.06;5062942;28;20472;-72
2023/12/02 02:06:09;;;;;;;23.52;11.38;;;;;;;-0.02;73.19;100998.97;5056580;28;20119;-72
2023/12/02 02:08:34;;;;;;;21.25;10.95;;;;;;;-0.01;73.77;101003.28;5060278;28;20082;-72
2023/12/02 02:11:00;;;;;;;25.83;11.00;;;;;;;-0.03;73.47;101007.63;5066998;28;20058;-70
2023/12/02 02:13:26;;;;;;;24.17;9.70;;;;;;;-0.02;73.96;101000.69;5066314;28;20028;-71
2023/12/02 02:15:52;;;;;;;22.05;10.30;;;;;;;-0.01;73.76;101010.22;5069269;28;20032;-71
2023/12/02 02:18:18;;;;;;;23.75;10.75;;;;;;;-0.01;74.64;101005.91;5065359;28;20541;-71
2023/12/02 02:20:52;;;;;;;20.25;9.68;;;;;;;0.01;74.23;101002.47;5066588;28;20043;-71
2023/12/02 02:23:22;;;;;;;24.98;11.23;;;;;;;-0.06;73.57;101006.72;5062393;28;20028;-71
2023/12/02 02:25:52;;;;;;;15.90;8.98;;;;;;;-0.14;73.97;101004.13;5063291;28;20029;-71
2023/12/02 02:28:22;;;;;;;26.98;11.02;;;;;;;-0.25;74.30;101003.16;5064172;28;20095;-71
2023/12/02 02:30:48;;;;;;;22.10;9.95;;;;;;;-0.28;74.45;101003.13;5062012;28;20043;-71
2023/12/02 02:33:13;;;;;;;18.70;8.98;;;;;;;-0.32;74.77;101001.41;5067692;28;20016;-71
2023/12/02 02:35:38;;;;;;;24.02;11.32;;;;;;;-0.39;74.50;100999.59;5058011;28;20021;-71
2023/12/02 02:38:04;;;;;;;24.00;11.55;;;;;;;-0.42;74.45;101005.66;5063166;28;20032;-71
2023/12/02 02:40:29;;;;;;;22.92;10.32;;;;;;;-0.40;74.29;101003.94;5059055;28;20081;-71
2023/12/02 02:42:55;;;;;;;22.55;10.43;;;;;;;-0.37;74.33;101008.28;5065743;28;20055;-71
2023/12/02 02:45:20;;;;;;;24.48;10.43;;;;;;;-0.33;74.56;101016.13;5054959;28;20122;-71
2023/12/02 02:47:45;;;;;;;23.10;10.52;;;;;;;-0.34;74.01;101016.94;5063105;28;20052;-71
2023/12/02 02:50:11;;;;;;;21.52;10.75;;;;;;;-0.34;74.06;101011.75;5063701;28;20032;-70
2023/12/02 02:52:36;;;;;;;23.17;10.82;;;;;;;-0.31;74.36;101019.56;5063476;28;20514;-71
2023/12/02 02:55:04;;;;;;;22.00;10.73;;;;;;;-0.31;74.04;101018.72;5062649;28;20025;-71
2023/12/02 02:57:30;;;;;;;21.50;11.07;;;;;;;-0.30;73.87;101021.31;5068346;28;20052;-71
2023/12/02 02:59:55;;;;;;;23.27;10.07;;;;;;;-0.26;74.55;101024.81;5057455;28;20108;-70
2023/12/02 03:02:21;;;;;;;21.95;10.45;;;;;;;-0.19;75.38;101030.91;5058118;28;20024;-71
2023/12/02 03:04:46;;;;;;;22.05;10.38;;;;;;;-0.18;74.82;101025.72;5055659;28;20392;-71
2023/12/02 03:07:11;;;;;;;23.17;10.00;;;;;;;-0.12;74.48;101030.97;5059712;28;20032;-71
2023/12/02 03:09:37;;;;;;;21.38;9.95;;;;;;;-0.06;74.80;101028.38;5062571;28;20384;-71
2023/12/02 03:12:02;;;;;;;24.20;11.73;;;;;;;-0.03;74.22;101041.41;5066775;28;20028;-72
2023/12/02 03:14:28;;;;;;;22.55;10.30;;;;;;;-0.01;75.38;101036.22;5057733;28;20032;-72
2023/12/02 03:16:53;;;;;;;23.40;11.50;;;;;;;-0.02;73.88;101037.09;5061750;28;20020;-73
2023/12/02 03:19:20;;;;;;;20.60;9.77;;;;;;;-0.01;74.07;101044.00;5063643;28;20055;-72
2023/12/02 03:21:45;;;;;;;23.20;11.23;;;;;;;-0.02;74.76;101037.09;5055083;28;20393;-71
2023/12/02 03:24:10;;;;;;;20.02;10.07;;;;;;;0.04;75.13;101038.84;5063446;28;20036;-71
2023/12/02 03:26:36;;;;;;;21.27;9.82;;;;;;;0.03;75.06;101035.38;5065278;28;20025;-71
2023/12/02 03:29:03;;;;;;;22.77;10.38;;;;;;;0.07;74.98;101034.53;5064388;28;20379;-71
2023/12/02 03:31:28;;;;;;;19.13;10.00;;;;;;;0.09;75.86;101027.59;5067718;28;20028;-72
2023/12/02 03:33:53;;;;;;;23.92;10.98;;;;;;;0.07;74.31;101034.53;5064568;28;20392;-71
2023/12/02 03:36:19;;;;;;;21.40;10.57;;;;;;;0.07;74.72;101034.53;5067586;28;20448;-71
2023/12/02 03:38:45;;;;;;;20.23;10.25;;;;;;;0.04;74.58;101018.91;5064734;28;20077;-71
2023/12/02 03:41:10;;;;;;;22.80;10.90;;;;;;;0.05;75.20;101032.78;5066867;28;20119;-71
2023/12/02 03:43:35;;;;;;;22.77;10.88;;;;;;;0.02;74.24;101027.59;5061827;28;20388;-71
2023/12/02 03:46:02;;;;;;;23.08;10.77;;;;;;;0.00;73.52;101030.19;5056418;28;20036;-72
2023/12/02 03:48:27;;;;;;;22.88;10.88;;;;;;;-0.01;74.12;101036.22;5060682;28;20031;-71
2023/12/02 03:50:53;;;;;;;24.50;11.00;;;;;;;-0.01;74.52;101034.47;5057827;28;20033;-71
2023/12/02 03:53:18;;;;;;;22.67;10.65;;;;;;;-0.08;74.18;101057.84;5055014;28;20066;-71
2023/12/02 03:55:44;;;;;;;25.08;11.05;;;;;;;-0.17;74.18;101030.06;5053722;28;20061;-71
2023/12/02 03:58:10;;;;;;;21.90;10.63;;;;;;;-0.23;74.25;101058.63;5055372;28;20115;-71
2023/12/02 04:00:35;;;;;;;23.88;10.85;;;;;;;-0.24;74.23;101050.78;5061633;28;20065;-71
2023/12/02 04:03:01;;;;;;;24.55;10.50;;;;;;;-0.18;74.40;101038.72;5054431;28;20506;-71
2023/12/02 04:05:26;;;;;;;22.00;10.07;;;;;;;-0.16;74.72;101054.31;5060218;28;20499;-71
2023/12/02 04:07:51;;;;;;;20.55;9.95;;;;;;;-0.12;75.18;101050.88;5061781;28;20028;-71
2023/12/02 04:10:17;;;;;;;20.42;10.68;;;;;;;-0.14;75.05;101056.09;5050531;28;20021;-71
2023/12/02 04:12:42;;;;;;;21.88;10.45;;;;;;;-0.11;74.42;101050.88;5058909;28;20033;-71
2023/12/02 04:15:08;;;;;;;20.95;9.80;;;;;;;-0.10;74.08;101067.34;5057082;28;20039;-71
2023/12/02 04:17:33;;;;;;;18.95;9.27;;;;;;;-0.10;74.19;101065.59;5056276;28;20384;-71
2023/12/02 04:19:59;;;;;;;24.10;11.30;;;;;;;-0.11;74.42;101066.47;5058880;28;20178;-70
2023/12/02 04:22:24;;;;;;;22.90;10.50;;;;;;;-0.09;74.70;101076.91;5056642;28;20052;-71
2023/12/02 04:24:50;;;;;;;26.02;10.93;;;;;;;-0.10;74.15;101072.53;5064361;28;20032;-71
2023/12/02 04:27:15;;;;;;;23.05;10.30;;;;;;;-0.15;74.35;101069.03;5061404;28;20048;-72
2023/12/02 04:29:42;;;;;;;19.70;9.50;;;;;;;-0.10;74.92;101077.72;5061740;28;20155;-71
2023/12/02 04:32:08;;;;;;;21.63;10.27;;;;;;;-0.11;74.18;101074.28;5057346;28;20029;-73
2023/12/02 04:34:34;;;;;;;21.10;9.82;;;;;;;-0.15;74.60;101077.69;5059996;28;20028;-73
2023/12/02 04:37:00;;;;;;;21.85;11.32;;;;;;;-0.10;74.21;101083.78;5058335;28;20036;-73
2023/12/02 04:39:25;;;;;;;20.40;10.55;;;;;;;-0.08;74.55;101082.09;5061487;28;20471;-73
2023/12/02 04:41:51;;;;;;;20.52;9.38;;;;;;;-0.04;74.60;101073.47;5057145;28;20079;-73
2023/12/02 04:44:17;;;;;;;21.63;10.60;;;;;;;0.03;75.27;101078.69;5056111;28;20029;-73
2023/12/02 04:46:43;;;;;;;22.10;10.80;;;;;;;-0.05;73.42;101081.22;5059563;28;20436;-73
2023/12/02 04:49:08;;;;;;;22.63;11.75;;;;;;;-0.22;72.65;101083.72;5060705;28;20634;-73
2023/12/02 04:51:33;;;;;;;25.42;10.35;;;;;;;-0.24;73.59;101072.44;5062002;28;20036;-73
2023/12/02 04:53:59;;;;;;;20.88;10.40;;;;;;;-0.28;74.44;101083.66;5059712;28;20021;-73
2023/12/02 04:56:25;;;;;;;21.83;10.82;;;;;;;-0.28;74.70;101081.06;5060750;28;20355;-73
2023/12/02 04:58:50;;;;;;;23.15;10.85;;;;;;;-0.20;74.86;101081.13;5061684;28;20024;-73
2023/12/02 05:01:16;;;;;;;24.65;9.60;;;;;;;-0.19;74.20;101086.31;5054051;28;20365;-73
2023/12/02 05:03:41;;;;;;;23.67;10.13;;;;;;;-0.14;74.66;101096.75;5060898;28;20141;-73
2023/12/02 05:06:08;;;;;;;22.70;10.52;;;;;;;-0.29;72.91;101087.97;5065230;28;20110;-73
2023/12/02 05:08:33;;;;;;;18.63;9.98;;;;;;;-0.41;75.16;101094.81;5055271;28;20472;-73
2023/12/02 05:10:58;;;;;;;21.58;10.43;;;;;;;-0.35;74.58;101097.47;5066222;28;20040;-73
2023/12/02 05:13:24;;;;;;;21.17;10.00;;;;;;;-0.28;74.91;101104.44;5067217;28;20110;-73
2023/12/02 05:15:49;;;;;;;22.00;9.73;;;;;;;-0.33;74.24;101103.53;5063895;28;20056;-73
2023/12/02 05:18:15;;;;;;;21.15;10.20;;;;;;;-0.37;74.91;101099.19;5055973;28;20036;-73
2023/12/02 05:20:40;;;;;;;22.27;10.65;;;;;;;-0.39;74.27;101100.88;5059992;28;20032;-74
2023/12/02 05:23:05;;;;;;;21.50;10.75;;;;;;;-0.38;74.17;101097.44;5063032;28;20633;-73
2023/12/02 05:25:31;;;;;;;20.52;10.20;;;;;;;-0.34;74.66;101112.19;5062134;28;20389;-74
2023/12/02 05:27:56;;;;;;;22.50;10.60;;;;;;;-0.28;75.10;101117.44;5057931;28;20033;-73
2023/12/02 05:30:21;;;;;;;21.67;10.30;;;;;;;-0.21;74.90;101119.22;5060948;28;20029;-73
2023/12/02 05:32:47;;;;;;;21.02;10.10;;;;;;;-0.19;74.35;101120.09;5059292;28;20037;-73
2023/12/02 05:35:12;;;;;;;23.17;10.52;;;;;;;-0.23;75.31;101110.56;5061126;28;20506;-73
2023/12/02 05:37:39;;;;;;;22.08;10.88;;;;;;;-0.21;75.12;101113.16;5064851;28;20111;-73
2023/12/02 05:40:05;;;;;;;21.90;10.13;;;;;;;-0.32;74.49;101106.16;5064428;28;20032;-73
2023/12/02 05:42:30;;;;;;;23.33;10.70;;;;;;;-0.44;75.20;101095.66;5062487;28;20380;-74
2023/12/02 05:44:56;;;;;;;21.65;10.55;;;;;;;-0.50;75.39;101108.59;5063024;28;20018;-73
2023/12/02 05:47:21;;;;;;;25.27;11.30;;;;;;;-0.43;75.71;101117.31;5056944;28;20423;-74
2023/12/02 05:49:46;;;;;;;19.40;9.57;;;;;;;-0.41;75.12;101110.41;5066365;28;20717;-73
2023/12/02 05:52:12;;;;;;;18.77;9.30;;;;;;;-0.40;75.11;101113.00;5060119;28;20507;-73
2023/12/02 05:54:37;;;;;;;20.83;10.73;;;;;;;-0.40;75.42;101123.41;5063901;28;20445;-74
2023/12/02 05:57:02;;;;;;;22.90;10.68;;;;;;;-0.41;75.16;101129.47;5066744;28;20040;-74
2023/12/02 05:59:28;;;;;;;22.60;11.73;;;;;;;-0.56;75.47;101124.09;5065454;28;20027;-74
2023/12/02 06:01:53;;;;;;;20.92;10.20;;;;;;;-0.59;76.38;101135.34;5061514;28;20388;-72
2023/12/02 06:04:19;;;;;;;24.88;10.65;;;;;;;-0.62;76.01;101134.44;5060697;28;20033;-71
2023/12/02 06:06:46;;;;;;;22.10;9.98;;;;;;;-0.64;76.50;101141.34;5060303;28;20365;-71
2023/12/02 06:09:11;;;;;;;21.65;10.27;;;;;;;-0.64;76.29;101138.75;5069107;28;20025;-72
2023/12/02 06:11:37;;;;;;;22.35;10.20;;;;;;;-0.62;76.82;101137.03;5065115;28;20028;-72
2023/12/02 06:14:02;;;;;;;23.15;10.80;;;;;;;-0.60;76.50;101133.59;5067397;28;20043;-71
2023/12/02 06:16:27;;;;;;;23.95;9.75;;;;;;;-0.57;76.77;101135.34;5063987;28;20050;-72
2023/12/02 06:18:53;;;;;;;21.50;10.82;;;;;;;-0.63;75.90;101128.38;5052897;28;20395;-71
2023/12/02 06:21:18;;;;;;;23.08;10.38;;;;;;;-0.73;75.64;101133.47;5061285;28;20439;-72
2023/12/02 06:23:43;;;;;;;21.67;9.32;;;;;;;-0.66;76.17;101137.84;5067319;28;20028;-72
2023/12/02 06:26:09;;;;;;;22.15;10.70;;;;;;;-0.64;77.22;101143.94;5065589;28;20025;-71
2023/12/02 06:28:34;;;;;;;22.08;10.10;;;;;;;-0.59;77.18;101140.53;5062540;28;20506;-71
2023/12/02 06:30:59;;;;;;;21.65;9.90;;;;;;;-0.52;77.13;101149.25;5062054;28;20037;-72
2023/12/02 06:33:25;;;;;;;17.73;9.88;;;;;;;-0.45;76.30;101150.19;5056439;28;20171;-72
2023/12/02 06:35:50;;;;;;;20.90;9.80;;;;;;;-0.47;76.38;101151.88;5057838;28;20029;-71
2023/12/02 06:38:15;;;;;;;24.55;10.80;;;;;;;-0.43;77.04;101164.06;5063039;28;20103;-72
2023/12/02 06:40:44;;;;;;;20.00;9.38;;;;;;;-0.41;77.14;101154.56;5059155;28;20052;-71
2023/12/02 06:43:11;;;;;;;26.92;12.20;;;;;;;-0.44;75.46;101162.31;5064557;28;20453;-71
2023/12/02 06:45:37;;;;;;;23.20;11.38;;;;;;;-0.55;76.00;101154.44;5061641;28;20383;-71
2023/12/02 06:48:02;;;;;;;25.20;11.32;;;;;;;-0.55;77.00;101163.09;5062770;28;20017;-72
2023/12/02 06:50:28;;;;;;;24.80;11.20;;;;;;;-0.44;77.18;101163.19;5066028;28;20036;-71
2023/12/02 06:52:53;;;;;;;22.60;11.43;;;;;;;-0.43;76.84;101158.84;5058795;28;20030;-74
2023/12/02 06:55:18;;;;;;;25.55;11.68;;;;;;;-0.15;76.50;101168.66;5067004;28;20033;-73
2023/12/02 06:57:44;;;;;;;28.75;12.52;;;;;;;-0.33;75.71;101165.88;5046913;28;20044;-73
2023/12/02 07:00:10;;;;;;;22.42;10.95;;;;;;;-0.30;75.76;101178.91;5054233;28;20208;-73
2023/12/02 07:02:36;;;;;;;23.13;11.07;;;;;;;-0.45;75.09;101177.03;5059869;28;20115;-71
2023/12/02 07:05:01;;;;;;;26.48;11.70;;;;;;;-0.48;75.90;101189.97;5059595;28;20039;-71
2023/12/02 07:07:26;;;;;;;25.63;11.02;;;;;;;-0.45;75.78;101195.22;5068306;28;20446;-71
2023/12/02 07:09:51;;;;;;;22.00;10.80;;;;;;;-0.48;76.22;101187.38;5060769;28;20063;-71
2023/12/02 07:12:17;;;;;;;21.90;11.43;;;;;;;-0.45;76.39;101196.94;5063347;28;20397;-74
2023/12/02 07:14:42;;;;;;;27.98;11.93;;;;;;;-0.44;75.37;101209.06;5058853;28;20071;-74
2023/12/02 07:17:08;;;;;;;24.27;12.45;;;;;;;-0.42;75.95;101203.03;5063558;28;20020;-73
2023/12/02 07:19:33;;;;;;;25.13;11.27;;;;;;;-0.42;76.12;101207.34;5058283;28;20094;-73
2023/12/02 07:21:58;;;;;;;25.30;11.23;;;;;;;-0.40;75.85;101211.72;5068086;28;20020;-73
2023/12/02 07:24:24;;;;;;;25.85;13.77;;;;;;;-0.48;75.80;101208.16;5059271;28;20111;-73
2023/12/02 07:26:49;;;;;;;25.13;11.70;;;;;;;-0.45;76.40;101207.34;5065585;28;20063;-73
2023/12/02 07:29:14;;;;;;;27.73;13.05;;;;;;;-0.50;75.90;101203.81;5066191;28;20031;-74
2023/12/02 07:31:40;;;;;;;22.08;12.13;;;;;;;-0.50;76.63;101211.59;5068187;28;20115;-74
2023/12/02 07:34:05;;;;;;;27.02;11.70;;;;;;;-0.48;76.50;101205.56;5058781;28;20434;-74
2023/12/02 07:36:31;;;;;;;32.20;13.75;;;;;;;-0.39;76.39;101218.66;5067270;28;20035;-74
2023/12/02 07:38:56;;;;;;;29.40;13.27;;;;;;;-0.41;75.22;101235.09;5056343;28;20347;-74
2023/12/02 07:41:22;;;;;;;24.92;11.32;;;;;;;-0.43;76.13;101224.66;5062063;28;20432;-73
2023/12/02 07:43:47;;;;;;;32.63;13.57;;;;;;;-0.47;75.57;101217.69;5062150;28;20086;-73
2023/12/02 07:46:12;;;;;;;26.80;12.32;;;;;;;-0.50;76.06;101212.47;5061286;28;20025;-73
2023/12/02 07:48:38;;;;;;;26.60;12.23;;;;;;;-0.49;76.03;101221.13;5057381;28;20024;-73
2023/12/02 07:51:05;;;;;;;26.55;12.43;;;;;;;-0.50;76.47;101224.59;5059928;28;20467;-74
2023/12/02 07:53:30;;;;;;;27.33;12.77;;;;;;;-0.44;76.63;101235.91;5062912;28;20476;-73
2023/12/02 07:55:55;;;;;;;29.02;13.57;;;;;;;-0.38;76.04;101241.16;5055768;28;20052;-74
2023/12/02 07:58:21;;;;;;;30.15;12.88;;;;;;;-0.31;75.88;101244.72;5060858;28;20024;-73
2023/12/02 08:00:46;;;;;;;30.70;12.60;;;;;;;-0.23;75.83;101236.97;5057201;28;20546;-73
2023/12/02 08:03:11;;;;;;;29.88;13.55;;;;;;;-0.32;75.41;101241.25;5058631;28;20040;-71
2023/12/02 08:05:37;;;;;;;29.40;13.52;;;;;;;-0.33;75.95;101242.09;5060534;28;20471;-72
2023/12/02 08:08:03;;;;;;;31.30;12.93;;;;;;;-0.30;76.13;101249.03;5050965;28;20035;-71
2023/12/02 08:10:29;;;;;;;29.48;12.13;;;;;;;-0.37;75.71;101248.13;5064922;28;20074;-71
2023/12/02 08:12:54;;;;;;;29.95;14.25;;;;;;;-0.49;76.30;101247.97;5061071;28;20032;-71
2023/12/02 08:15:19;;;;;;;31.75;13.25;;;;;;;-0.41;76.58;101255.88;5053278;28;20092;-71
2023/12/02 08:17:46;;;;;;;33.95;14.02;;;;;;;-0.29;76.61;101261.16;5061001;28;20102;-72
2023/12/02 08:20:12;;;;;;;39.03;14.45;;;;;;;-0.19;75.69;101269.94;5061213;28;20021;-71
2023/12/02 08:22:37;;;;;;;32.95;13.90;;;;;;;-0.13;75.30;101277.81;5060198;28;20044;-71
2023/12/02 08:25:03;;;;;;;33.83;14.10;;;;;;;-0.03;76.11;101274.44;5067334;28;20055;-71
2023/12/02 08:27:28;;;;;;;29.50;13.75;;;;;;;0.14;75.31;101267.69;5065221;28;20198;-71
2023/12/02 08:29:53;;;;;;;27.38;12.15;;;;;;;0.35;75.07;101268.72;5054861;28;20111;-71
2023/12/02 08:32:19;;;;;;;32.35;14.02;;;;;;;0.57;74.82;101272.38;5067822;28;20427;-72
2023/12/02 08:34:44;;;;;;;26.38;13.18;;;;;;;0.83;73.92;101281.22;5063386;28;20032;-71
2023/12/02 08:37:09;;;;;;;33.60;13.63;;;;;;;0.94;73.47;101284.78;5059697;28;20020;-71
2023/12/02 08:39:35;;;;;;;33.85;13.40;;;;;;;1.03;72.83;101278.78;5058654;28;20041;-71
2023/12/02 08:42:00;;;;;;;28.60;12.55;;;;;;;1.13;72.97;101290.97;5061727;28;20033;-72
2023/12/02 08:44:26;;;;;;;30.55;13.30;;;;;;;1.17;72.66;101291.88;5057849;28;20132;-71
2023/12/02 08:46:54;;;;;;;29.40;13.60;;;;;;;1.08;71.99;101297.91;5058629;28;20021;-72
2023/12/02 08:49:19;;;;;;;28.23;11.70;;;;;;;1.01;72.24;101298.72;5059323;28;20021;-71
2023/12/02 08:51:45;;;;;;;26.35;12.88;;;;;;;0.97;72.41;101294.34;5059716;28;20040;-72
2023/12/02 08:54:10;;;;;;;29.40;13.77;;;;;;;0.92;72.62;101304.72;5066366;28;20021;-71
2023/12/02 08:56:36;;;;;;;30.63;13.13;;;;;;;0.85;72.72;101300.34;5058074;28;20092;-71
2023/12/02 08:59:02;;;;;;;29.27;12.90;;;;;;;0.76;71.91;101305.47;5058546;28;20385;-71
2023/12/02 09:01:28;;;;;;;28.30;13.50;;;;;;;0.53;71.51;101305.31;5057464;28;20060;-71
2023/12/02 09:03:54;;;;;;;25.75;13.15;;;;;;;0.42;72.24;101310.41;5058491;28;20052;-71
2023/12/02 09:06:19;;;;;;;28.40;13.38;;;;;;;0.37;72.34;101313.81;5060721;28;20033;-72
2023/12/02 09:08:44;;;;;;;26.95;12.73;;;;;;;0.38;73.04;101312.97;5068155;28;20020;-71
2023/12/02 09:11:10;;;;;;;31.35;14.05;;;;;;;0.46;72.69;101316.50;5067620;28;20020;-72
2023/12/02 09:13:48;;;;;;;35.35;13.75;;;;;;;0.48;72.67;101307.88;5067070;28;20041;-71
2023/12/02 09:16:21;;;;;;;29.52;12.95;;;;;;;0.93;72.59;101311.69;5065059;28;20040;-71
2023/12/02 09:18:46;;;;;;;30.38;13.73;;;;;;;1.52;71.26;101318.09;5067148;28;20379;-71
2023/12/02 09:21:38;;;;;;;27.52;12.35;;;;;;;2.12;70.29;101324.38;5058733;28;20104;-71
2023/12/02 09:24:24;;;;;;;24.13;11.45;;;;;;;3.02;66.69;101316.56;5057826;28;20443;-71
2023/12/02 09:26:50;;;;;;;25.85;12.02;;;;;;;4.15;63.93;101317.00;5065752;28;20524;-71
2023/12/02 09:29:16;;;;;;;24.23;11.20;;;;;;;5.33;60.60;101322.13;5060393;28;20024;-71
2023/12/02 09:31:42;;;;;;;23.77;11.60;;;;;;;6.14;58.23;101316.75;5059114;28;20115;-72
2023/12/02 09:34:42;;;;;;;26.23;12.18;;;;;;;7.35;59.22;101313.84;5064634;28;20107;-71
2023/12/02 09:37:53;;;;;;;28.45;12.60;;;;;;;8.74;58.52;101312.59;5067663;28;20099;-70
2023/12/02 09:40:21;;;;;;;22.15;11.70;;;;;;;8.69;51.39;101325.88;5050336;28;20068;-71
2023/12/02 09:42:55;;;;;;;24.23;11.82;;;;;;;9.33;51.79;101320.72;5059025;28;20032;-70
2023/12/02 09:45:24;;;;;;;22.15;10.73;;;;;;;9.32;50.12;101316.31;5060861;28;20044;-70
2023/12/02 09:48:13;;;;;;;25.55;13.05;;;;;;;9.09;51.10;101336.28;5060370;28;20063;-71
2023/12/02 09:50:54;;;;;;;25.33;12.20;;;;;;;9.45;49.76;101328.28;5056376;28;20025;-70
2023/12/02 09:54:05;;;;;;;29.83;13.85;;;;;;;9.68;48.61;101328.50;5059126;28;20028;-70
2023/12/02 09:56:38;;;;;;;27.30;13.57;;;;;;;9.35;47.74;101330.31;5055365;28;20041;-71
2023/12/02 09:59:19;;;;;;;26.30;13.02;;;;;;;9.21;47.39;101324.53;5057428;28;20468;-70
2023/12/02 10:02:03;;;;;;;24.10;12.43;;;;;;;9.95;48.90;101324.19;5062825;28;20036;-69
2023/12/02 10:04:29;;;;;;;25.75;13.65;;;;;;;11.00;45.39;101321.75;5063849;28;20039;-70
2023/12/02 10:07:15;;;;;;;25.50;13.23;;;;;;;11.71;43.33;101333.34;5059068;28;20063;-70
2023/12/02 10:10:06;;;;;;;25.48;13.93;;;;;;;10.53;47.24;101326.81;5057623;28;20667;-70
2023/12/02 10:12:47;;;;;;;23.17;12.73;;;;;;;10.18;44.95;101331.41;5057516;28;20483;-69
2023/12/02 10:15:16;;;;;;;24.30;13.55;;;;;;;11.06;43.92;101331.28;5058515;28;20077;-70
2023/12/02 10:18:03;;;;;;;25.88;13.35;;;;;;;11.30;43.29;101332.19;5057643;28;20032;-70
2023/12/02 10:20:34;;;;;;;22.73;11.82;;;;;;;11.88;42.60;101328.31;5057123;28;20502;-71
2023/12/02 10:23:12;;;;;;;27.75;14.63;;;;;;;12.28;40.67;101331.22;5062111;28;20023;-71
2023/12/02 10:25:46;;;;;;;22.88;13.43;;;;;;;11.14;40.81;101327.41;5054648;28;20032;-71
2023/12/02 10:28:22;;;;;;;24.23;13.68;;;;;;;11.18;44.98;101330.81;5060947;28;20021;-70
2023/12/02 10:30:51;;;;;;;23.67;12.43;;;;;;;9.83;43.31;101329.81;5057916;28;20089;-70
2023/12/02 10:33:47;;;;;;;25.63;12.98;;;;;;;9.03;45.27;101339.06;5055351;28;20021;-70
2023/12/02 10:36:14;;;;;;;22.33;11.98;;;;;;;7.82;48.77;101333.09;5062821;28;20073;-71
2023/12/02 10:38:58;;;;;;;23.85;12.68;;;;;;;6.84;50.74;101338.41;5061785;28;20060;-70
2023/12/02 10:41:35;;;;;;;24.75;11.85;;;;;;;6.34;52.38;101347.09;5061030;28;20052;-71
2023/12/02 10:44:06;;;;;;;25.25;13.20;;;;;;;5.57;52.97;101339.34;5064795;28;20546;-71
2023/12/02 10:46:33;;;;;;;25.42;14.07;;;;;;;5.22;56.03;101337.06;5058995;28;20137;-70
2023/12/02 10:49:00;;;;;;;26.50;12.98;;;;;;;5.12;55.93;101342.41;5059229;28;20031;-71
2023/12/02 10:51:28;;;;;;;25.55;14.20;;;;;;;5.22;55.70;101350.19;5061491;28;20067;-70
2023/12/02 10:53:59;;;;;;;26.88;14.20;;;;;;;5.19;57.05;101339.75;5058194;28;20116;-71
2023/12/02 10:56:30;;;;;;;30.17;13.77;;;;;;;6.06;55.36;101337.00;5066552;28;20123;-71
2023/12/02 10:58:56;;;;;;;31.67;15.15;;;;;;;7.25;53.22;101328.94;5061683;28;20029;-73
2023/12/02 11:01:32;;;;;;;26.45;12.80;;;;;;;9.10;48.00;101338.00;5062479;28;20111;-68
2023/12/02 11:04:00;;;;;;;28.17;13.98;;;;;;;10.41;44.23;101345.75;5059961;28;20082;-70
2023/12/02 11:06:36;;;;;;;26.08;13.15;;;;;;;9.86;46.44;101342.94;5059052;28;20048;-70
2023/12/02 11:09:05;;;;;;;23.58;12.45;;;;;;;8.73;47.96;101334.59;5061912;28;20086;-70
2023/12/02 11:11:45;;;;;;;26.17;13.13;;;;;;;7.88;49.30;101335.56;5061407;28;20461;-71